createdAt,value
2017-07-31T00:00:04.937Z,0.80
2017-07-31T00:02:34.308Z,0.80
2017-07-31T00:05:04.315Z,1.10
2017-07-31T00:07:33.036Z,0.83
2017-07-31T00:10:01.761Z,0.67
2017-07-31T00:12:31.128Z,1.10
2017-07-31T00:15:01.530Z,0.60
2017-07-31T00:17:30.439Z,0.93
2017-07-31T00:19:59.787Z,0.70
2017-07-31T00:22:28.749Z,0.80
2017-07-31T00:24:57.891Z,0.90
2017-07-31T00:27:27.354Z,1.00
2017-07-31T00:29:56.612Z,1.10
2017-07-31T00:32:26.920Z,0.90
2017-07-31T00:34:56.168Z,0.70
2017-07-31T00:37:25.393Z,1.10
2017-07-31T00:39:54.878Z,0.80
2017-07-31T00:42:24.311Z,1.07
2017-07-31T00:44:53.645Z,1.00
2017-07-31T00:47:22.880Z,0.77
2017-07-31T00:49:52.207Z,0.90
2017-07-31T00:52:21.621Z,0.70
2017-07-31T00:54:50.951Z,0.70
2017-07-31T00:57:20.385Z,0.70
2017-07-31T00:59:49.856Z,1.00
2017-07-31T01:02:18.894Z,0.90
2017-07-31T01:04:48.395Z,0.73
2017-07-31T01:07:17.682Z,1.10
2017-07-31T01:09:46.876Z,0.93
2017-07-31T01:12:16.313Z,0.97
2017-07-31T01:14:45.592Z,0.80
2017-07-31T01:17:15.780Z,1.00
2017-07-31T01:19:46.304Z,1.00
2017-07-31T01:22:16.852Z,0.83
2017-07-31T01:24:46.014Z,1.00
2017-07-31T01:27:15.510Z,1.17
2017-07-31T01:29:44.574Z,1.10
2017-07-31T01:32:13.949Z,1.00
2017-07-31T01:34:43.259Z,0.80
2017-07-31T01:37:13.388Z,0.77
2017-07-31T01:39:42.810Z,0.97
2017-07-31T01:42:12.070Z,1.10
2017-07-31T01:44:41.338Z,0.90
2017-07-31T01:47:10.554Z,0.80
2017-07-31T01:49:39.893Z,1.17
2017-07-31T01:52:09.430Z,1.10
2017-07-31T01:54:38.478Z,0.90
2017-07-31T01:57:07.990Z,1.23
2017-07-31T01:59:37.174Z,1.27
2017-07-31T02:02:06.388Z,1.00
2017-07-31T02:04:35.757Z,0.90
2017-07-31T02:07:04.976Z,1.00
2017-07-31T02:09:34.650Z,1.37
2017-07-31T02:12:03.967Z,0.97
2017-07-31T02:14:33.330Z,1.00
2017-07-31T02:17:02.588Z,1.30
2017-07-31T02:19:33.562Z,1.20
2017-07-31T02:22:02.896Z,1.73
2017-07-31T02:24:31.929Z,1.80
2017-07-31T02:27:01.397Z,1.33
2017-07-31T02:29:30.669Z,1.40
2017-07-31T02:31:59.707Z,1.20
2017-07-31T02:34:28.942Z,1.17
2017-07-31T02:36:58.165Z,1.40
2017-07-31T02:39:27.422Z,1.00
2017-07-31T02:41:58.350Z,1.10
2017-07-31T02:44:27.519Z,1.30
2017-07-31T02:46:57.155Z,1.23
2017-07-31T02:49:26.784Z,1.30
2017-07-31T02:51:56.375Z,1.10
2017-07-31T02:54:25.817Z,1.20
2017-07-31T02:56:55.302Z,1.43
2017-07-31T02:59:24.630Z,1.43
2017-07-31T03:01:53.900Z,1.80
2017-07-31T03:04:23.467Z,1.63
2017-07-31T03:06:52.751Z,1.37
2017-07-31T03:09:21.845Z,1.23
2017-07-31T03:11:51.422Z,1.13
2017-07-31T03:14:21.188Z,1.33
2017-07-31T03:16:50.698Z,1.60
2017-07-31T03:19:20.331Z,1.43
2017-07-31T03:21:51.284Z,1.10
2017-07-31T03:24:20.687Z,1.30
2017-07-31T03:26:50.292Z,1.23
2017-07-31T03:29:19.502Z,1.17
2017-07-31T03:31:48.938Z,1.23
2017-07-31T03:34:18.096Z,1.50
2017-07-31T03:36:46.857Z,1.30
2017-07-31T03:39:15.704Z,1.23
2017-07-31T03:41:44.503Z,1.20
2017-07-31T03:44:13.332Z,1.07
2017-07-31T03:46:42.486Z,1.43
2017-07-31T03:49:11.247Z,1.07
2017-07-31T03:51:40.365Z,1.20
2017-07-31T03:54:09.945Z,1.40
2017-07-31T03:56:39.302Z,1.30
2017-07-31T03:59:08.034Z,1.10
2017-07-31T04:01:36.811Z,1.10
2017-07-31T04:04:05.583Z,1.40
2017-07-31T04:06:34.939Z,1.30
2017-07-31T04:09:04.841Z,1.27
2017-07-31T04:11:34.063Z,1.13
2017-07-31T04:14:03.670Z,1.40
2017-07-31T04:16:33.222Z,1.03
2017-07-31T04:19:01.992Z,1.20
2017-07-31T04:21:30.700Z,1.40
2017-07-31T04:24:00.960Z,1.57
2017-07-31T04:26:29.700Z,1.57
2017-07-31T04:28:59.092Z,1.53
2017-07-31T04:31:28.467Z,1.80
2017-07-31T04:33:57.859Z,1.20
2017-07-31T04:36:28.866Z,1.37
2017-07-31T04:38:58.209Z,1.07
2017-07-31T04:41:26.929Z,1.20
2017-07-31T04:43:55.776Z,1.40
2017-07-31T04:46:24.486Z,1.57
2017-07-31T04:48:53.152Z,1.50
2017-07-31T04:51:21.949Z,1.07
2017-07-31T04:53:51.318Z,1.00
2017-07-31T04:56:20.031Z,1.50
2017-07-31T04:58:49.372Z,1.50
2017-07-31T05:01:18.828Z,1.40
2017-07-31T05:03:47.519Z,0.97
2017-07-31T05:06:16.419Z,1.30
2017-07-31T05:08:45.151Z,1.30
2017-07-31T05:11:14.423Z,1.40
2017-07-31T05:13:44.130Z,1.50
2017-07-31T05:16:13.327Z,1.00
2017-07-31T05:18:42.741Z,1.40
2017-07-31T05:21:12.111Z,1.60
2017-07-31T05:23:41.476Z,1.43
2017-07-31T05:26:10.908Z,1.73
2017-07-31T05:28:40.259Z,1.57
2017-07-31T05:31:08.981Z,1.10
2017-07-31T05:33:38.227Z,1.60
2017-07-31T05:36:07.344Z,1.50
2017-07-31T05:38:36.933Z,1.37
2017-07-31T05:41:06.512Z,1.70
2017-07-31T05:43:35.943Z,1.40
2017-07-31T05:46:05.422Z,2.03
2017-07-31T05:48:34.977Z,1.47
2017-07-31T05:51:04.524Z,1.37
2017-07-31T05:53:33.773Z,1.20
2017-07-31T05:56:04.248Z,1.40
2017-07-31T05:58:33.991Z,1.53
2017-07-31T06:01:03.379Z,1.40
2017-07-31T06:03:32.781Z,1.37
2017-07-31T06:06:02.463Z,1.50
2017-07-31T06:08:31.728Z,1.90
2017-07-31T06:11:01.883Z,1.10
2017-07-31T06:13:31.535Z,1.20
2017-07-31T06:16:01.070Z,1.20
2017-07-31T06:18:30.091Z,1.63
2017-07-31T06:20:59.632Z,1.53
2017-07-31T06:23:29.078Z,1.83
2017-07-31T06:25:59.351Z,1.33
2017-07-31T06:28:29.370Z,1.63
2017-07-31T06:30:58.668Z,1.47
2017-07-31T06:33:28.562Z,1.10
2017-07-31T06:35:58.072Z,1.53
2017-07-31T06:38:27.507Z,1.60
2017-07-31T06:40:57.236Z,1.47
2017-07-31T06:43:26.688Z,1.90
2017-07-31T06:45:56.375Z,1.30
2017-07-31T06:48:25.912Z,1.87
2017-07-31T06:50:55.253Z,1.73
2017-07-31T06:53:24.941Z,1.50
2017-07-31T06:55:54.076Z,1.50
2017-07-31T06:58:23.448Z,1.40
2017-07-31T07:00:52.700Z,1.57
2017-07-31T07:03:22.218Z,1.47
2017-07-31T07:05:51.701Z,1.53
2017-07-31T07:08:21.244Z,1.80
2017-07-31T07:10:50.734Z,1.40
2017-07-31T07:13:20.139Z,2.03
2017-07-31T07:15:49.477Z,1.47
2017-07-31T07:18:19.200Z,1.63
2017-07-31T07:20:48.527Z,1.40
2017-07-31T07:23:17.999Z,1.70
2017-07-31T07:25:48.049Z,1.43
2017-07-31T07:28:18.483Z,1.60
2017-07-31T07:30:49.145Z,1.90
2017-07-31T07:33:18.540Z,1.70
2017-07-31T07:35:47.773Z,1.60
2017-07-31T07:38:17.414Z,1.43
2017-07-31T07:40:46.779Z,1.50
2017-07-31T07:43:16.551Z,1.70
2017-07-31T07:45:45.937Z,1.57
2017-07-31T07:48:15.364Z,1.60
2017-07-31T07:50:44.903Z,1.67
2017-07-31T07:53:14.472Z,1.70
2017-07-31T07:55:43.718Z,1.57
2017-07-31T07:58:12.993Z,1.57
2017-07-31T08:00:42.577Z,1.80
2017-07-31T08:03:11.785Z,1.77
2017-07-31T08:05:41.200Z,1.80
2017-07-31T08:08:10.501Z,1.80
2017-07-31T08:10:39.689Z,1.93
2017-07-31T08:13:10.351Z,1.80
2017-07-31T08:15:39.617Z,1.77
2017-07-31T08:18:08.996Z,1.53
2017-07-31T08:20:38.291Z,1.57
2017-07-31T08:23:07.540Z,1.43
2017-07-31T08:25:36.310Z,1.60
2017-07-31T08:28:05.594Z,1.40
2017-07-31T08:30:35.015Z,1.80
2017-07-31T08:33:05.647Z,1.73
2017-07-31T08:35:34.389Z,1.97
2017-07-31T08:38:03.281Z,1.90
2017-07-31T08:40:31.992Z,1.80
2017-07-31T08:43:00.730Z,1.70
2017-07-31T08:45:30.324Z,1.57
2017-07-31T08:47:59.634Z,2.07
2017-07-31T08:50:29.010Z,1.77
2017-07-31T08:52:58.806Z,1.90
2017-07-31T08:55:28.028Z,1.40
2017-07-31T08:57:57.318Z,1.40
2017-07-31T09:00:26.802Z,1.50
2017-07-31T09:02:56.269Z,1.57
2017-07-31T09:05:25.842Z,1.60
2017-07-31T09:07:55.153Z,1.67
2017-07-31T09:10:24.819Z,1.53
2017-07-31T09:12:55.031Z,1.90
2017-07-31T09:15:23.730Z,1.87
2017-07-31T09:17:52.376Z,1.60
2017-07-31T09:20:21.811Z,1.83
2017-07-31T09:22:51.494Z,1.73
2017-07-31T09:25:20.728Z,1.90
2017-07-31T09:27:50.073Z,2.00
2017-07-31T09:30:19.378Z,1.80
2017-07-31T09:32:48.640Z,1.60
2017-07-31T09:35:18.878Z,1.80
2017-07-31T09:37:48.537Z,1.77
2017-07-31T09:40:17.945Z,1.50
2017-07-31T09:42:47.475Z,1.80
2017-07-31T09:45:16.870Z,1.93
2017-07-31T09:47:47.192Z,1.90
2017-07-31T09:50:16.755Z,1.90
2017-07-31T09:52:46.192Z,1.80
2017-07-31T09:55:15.978Z,1.50
2017-07-31T09:57:45.291Z,1.73
2017-07-31T10:00:14.532Z,1.90
2017-07-31T10:02:43.890Z,1.97
2017-07-31T10:05:13.113Z,1.73
2017-07-31T10:07:43.282Z,2.00
2017-07-31T10:10:12.768Z,1.77
2017-07-31T10:12:42.101Z,2.20
2017-07-31T10:15:11.727Z,2.10
2017-07-31T10:17:41.288Z,1.80
2017-07-31T10:20:10.876Z,1.90
2017-07-31T10:22:40.593Z,1.60
2017-07-31T10:25:10.101Z,1.80
2017-07-31T10:27:39.653Z,2.03
2017-07-31T10:30:09.056Z,1.70
2017-07-31T10:32:38.413Z,2.10
2017-07-31T10:35:07.969Z,2.10
2017-07-31T10:37:38.593Z,1.90
2017-07-31T10:40:08.097Z,1.97
2017-07-31T10:42:37.766Z,2.17
2017-07-31T10:45:07.531Z,2.27
2017-07-31T10:47:37.080Z,2.00
2017-07-31T10:50:06.268Z,2.00
2017-07-31T10:52:35.859Z,1.90
2017-07-31T10:55:05.444Z,2.17
2017-07-31T10:57:34.914Z,2.30
2017-07-31T11:00:04.255Z,2.17
2017-07-31T11:02:33.446Z,2.23
2017-07-31T11:05:02.749Z,2.20
2017-07-31T11:07:32.167Z,2.70
2017-07-31T11:10:01.530Z,2.23
2017-07-31T11:12:30.732Z,2.20
2017-07-31T11:15:00.082Z,2.27
2017-07-31T11:17:29.742Z,1.90
2017-07-31T11:19:59.094Z,2.00
2017-07-31T11:22:28.768Z,1.90
2017-07-31T11:24:58.175Z,2.40
2017-07-31T11:27:27.515Z,2.37
2017-07-31T11:29:57.378Z,2.47
2017-07-31T11:32:26.582Z,1.80
2017-07-31T11:34:56.204Z,2.30
2017-07-31T11:37:25.747Z,2.40
2017-07-31T11:39:56.196Z,2.00
2017-07-31T11:42:25.585Z,2.40
2017-07-31T11:44:55.133Z,2.40
2017-07-31T11:47:24.473Z,3.00
2017-07-31T11:49:53.999Z,2.47
2017-07-31T11:52:23.622Z,2.57
2017-07-31T11:54:53.074Z,2.83
2017-07-31T11:57:22.413Z,2.80
2017-07-31T11:59:51.638Z,2.50
2017-07-31T12:02:28.236Z,2.70
2017-07-31T12:04:57.424Z,2.27
2017-07-31T12:07:26.632Z,2.67
2017-07-31T12:09:56.227Z,2.73
2017-07-31T12:12:25.658Z,2.77
2017-07-31T12:14:54.925Z,2.63
2017-07-31T12:17:24.394Z,2.50
2017-07-31T12:19:53.767Z,2.23
2017-07-31T12:22:23.729Z,3.10
2017-07-31T12:24:53.012Z,3.10
2017-07-31T12:27:22.350Z,2.70
2017-07-31T12:29:51.765Z,2.60
2017-07-31T12:32:21.033Z,2.70
2017-07-31T12:34:50.609Z,2.50
2017-07-31T12:37:20.026Z,2.63
2017-07-31T12:39:49.787Z,3.13
2017-07-31T12:42:20.446Z,3.13
2017-07-31T12:44:49.998Z,3.10
2017-07-31T12:47:19.607Z,2.90
2017-07-31T12:49:48.877Z,3.03
2017-07-31T12:52:18.656Z,3.43
2017-07-31T12:54:47.966Z,3.30
2017-07-31T12:57:17.986Z,3.00
2017-07-31T12:59:47.474Z,2.90
2017-07-31T13:02:17.068Z,2.53
2017-07-31T13:04:46.539Z,3.30
2017-07-31T13:07:15.884Z,3.80
2017-07-31T13:09:45.600Z,3.20
2017-07-31T13:12:20.130Z,2.60
2017-07-31T13:14:50.214Z,3.40
2017-07-31T13:17:19.575Z,2.73
2017-07-31T13:19:48.904Z,2.83
2017-07-31T13:22:18.435Z,4.20
2017-07-31T13:24:47.919Z,3.20
2017-07-31T13:27:17.211Z,3.70
2017-07-31T13:29:46.402Z,3.97
2017-07-31T13:32:15.923Z,3.77
2017-07-31T13:34:45.571Z,2.80
2017-07-31T13:37:14.989Z,3.20
2017-07-31T13:39:44.977Z,3.47
2017-07-31T13:42:14.438Z,3.77
2017-07-31T13:44:44.577Z,3.27
2017-07-31T13:47:13.839Z,3.83
2017-07-31T13:49:43.176Z,4.50
2017-07-31T13:52:12.985Z,3.63
2017-07-31T13:54:42.300Z,3.80
2017-07-31T13:57:11.589Z,3.03
2017-07-31T13:59:41.291Z,3.83
2017-07-31T14:02:11.085Z,3.73
2017-07-31T14:04:40.331Z,4.53
2017-07-31T14:07:09.796Z,4.13
2017-07-31T14:09:39.217Z,3.37
2017-07-31T14:12:08.538Z,3.70
2017-07-31T14:14:38.079Z,3.70
2017-07-31T14:17:07.549Z,3.90
2017-07-31T14:19:37.119Z,4.17
2017-07-31T14:22:06.721Z,3.23
2017-07-31T14:24:36.848Z,3.63
2017-07-31T14:27:06.152Z,3.53
2017-07-31T14:29:35.774Z,3.80
2017-07-31T14:32:05.447Z,3.97
2017-07-31T14:34:35.514Z,3.90
2017-07-31T14:37:05.066Z,3.37
2017-07-31T14:39:34.738Z,3.53
2017-07-31T14:42:04.322Z,3.43
2017-07-31T14:44:33.557Z,4.00
2017-07-31T14:47:04.077Z,3.77
2017-07-31T14:49:33.546Z,4.00
2017-07-31T14:52:03.061Z,3.57
2017-07-31T14:54:32.469Z,3.00
2017-07-31T14:57:01.628Z,3.90
2017-07-31T14:59:30.933Z,4.40
2017-07-31T15:02:00.034Z,4.33
2017-07-31T15:04:29.576Z,3.40
2017-07-31T15:06:59.170Z,4.47
2017-07-31T15:09:28.769Z,3.10
2017-07-31T15:11:58.095Z,4.00
2017-07-31T15:14:27.417Z,3.40
2017-07-31T15:16:56.657Z,3.10
2017-07-31T15:19:26.334Z,3.80
2017-07-31T15:21:55.564Z,3.03
2017-07-31T15:24:24.974Z,3.00
2017-07-31T15:26:54.686Z,3.30
2017-07-31T15:29:24.125Z,2.97
2017-07-31T15:31:53.326Z,2.50
2017-07-31T15:34:22.790Z,3.30
2017-07-31T15:36:52.353Z,3.17
2017-07-31T15:39:21.519Z,2.60
2017-07-31T15:41:51.017Z,2.63
2017-07-31T15:44:20.525Z,2.47
2017-07-31T15:46:50.005Z,2.20
2017-07-31T15:49:21.037Z,2.53
2017-07-31T15:51:50.368Z,2.73
2017-07-31T15:54:19.732Z,1.97
2017-07-31T15:56:49.743Z,2.80
2017-07-31T15:59:18.705Z,2.10
2017-07-31T16:01:47.925Z,2.20
2017-07-31T16:04:17.550Z,2.33
2017-07-31T16:06:47.660Z,2.70
2017-07-31T16:09:16.806Z,2.70
2017-07-31T16:11:45.973Z,2.57
2017-07-31T16:14:15.400Z,2.30
2017-07-31T16:16:44.702Z,1.77
2017-07-31T16:19:13.787Z,1.90
2017-07-31T16:21:43.057Z,2.90
2017-07-31T16:24:12.271Z,2.20
2017-07-31T16:26:42.268Z,2.77
2017-07-31T16:29:11.542Z,2.83
2017-07-31T16:31:40.873Z,2.40
2017-07-31T16:34:09.951Z,1.87
2017-07-31T16:36:39.626Z,2.40
2017-07-31T16:39:20.666Z,2.17
2017-07-31T16:42:03.691Z,2.13
2017-07-31T16:44:41.272Z,1.80
2017-07-31T16:47:21.990Z,2.07
2017-07-31T16:49:53.358Z,2.10
2017-07-31T16:52:22.779Z,2.60
2017-07-31T16:54:52.116Z,2.50
2017-07-31T16:57:21.319Z,2.73
2017-07-31T16:59:50.861Z,2.60
2017-07-31T17:02:27.391Z,2.83
2017-07-31T17:04:56.549Z,2.50
2017-07-31T17:07:25.810Z,2.53
2017-07-31T17:09:55.360Z,3.20
2017-07-31T17:12:24.668Z,3.67
2017-07-31T17:14:53.956Z,1.93
2017-07-31T17:17:23.255Z,3.03
2017-07-31T17:19:52.644Z,2.60
2017-07-31T17:22:22.207Z,2.10
2017-07-31T17:24:51.494Z,2.70
2017-07-31T17:27:20.766Z,2.30
2017-07-31T17:29:49.779Z,2.90
2017-07-31T17:32:18.924Z,2.47
2017-07-31T17:34:48.273Z,2.50
2017-07-31T17:37:17.436Z,2.00
2017-07-31T17:39:47.040Z,2.60
2017-07-31T17:42:16.486Z,2.50
2017-07-31T17:44:46.798Z,2.20
2017-07-31T17:47:16.339Z,2.90
2017-07-31T17:49:45.690Z,2.73
2017-07-31T17:52:15.513Z,2.07
2017-07-31T17:54:45.110Z,3.33
2017-07-31T17:57:14.691Z,2.67
2017-07-31T17:59:44.540Z,3.20
2017-07-31T18:02:13.961Z,2.67
2017-07-31T18:04:43.559Z,2.37
2017-07-31T18:07:13.635Z,3.13
2017-07-31T18:09:43.214Z,3.30
2017-07-31T18:12:12.717Z,2.50
2017-07-31T18:14:42.863Z,2.37
2017-07-31T18:17:12.077Z,2.53
2017-07-31T18:19:41.344Z,2.70
2017-07-31T18:22:10.798Z,2.90
2017-07-31T18:24:40.006Z,2.87
2017-07-31T18:27:09.431Z,2.70
2017-07-31T18:29:39.502Z,2.90
2017-07-31T18:32:09.111Z,2.60
2017-07-31T18:34:38.699Z,2.50
2017-07-31T18:37:08.078Z,2.23
2017-07-31T18:39:37.595Z,2.20
2017-07-31T18:42:07.029Z,2.77
2017-07-31T18:44:36.468Z,2.40
2017-07-31T18:47:05.530Z,2.63
2017-07-31T18:49:34.533Z,2.93
2017-07-31T18:52:03.917Z,2.70
2017-07-31T18:54:34.792Z,3.10
2017-07-31T18:57:04.242Z,2.57
2017-07-31T18:59:33.700Z,3.37
2017-07-31T19:02:02.758Z,2.50
2017-07-31T19:04:31.970Z,2.80
2017-07-31T19:07:01.191Z,2.43
2017-07-31T19:09:31.037Z,2.97
2017-07-31T19:12:00.620Z,3.13
2017-07-31T19:14:29.745Z,2.83
2017-07-31T19:16:59.285Z,2.90
2017-07-31T19:19:28.775Z,2.77
2017-07-31T19:21:58.130Z,3.00
2017-07-31T19:24:28.566Z,3.30
2017-07-31T19:26:57.780Z,2.73
2017-07-31T19:29:27.006Z,2.20
2017-07-31T19:31:56.501Z,3.00
2017-07-31T19:34:25.696Z,2.50
2017-07-31T19:36:54.934Z,2.70
2017-07-31T19:39:24.221Z,2.30
2017-07-31T19:41:53.684Z,2.60
2017-07-31T19:44:23.907Z,3.00
2017-07-31T19:46:53.015Z,2.50
2017-07-31T19:49:22.237Z,2.43
2017-07-31T19:51:51.387Z,3.00
2017-07-31T19:54:20.751Z,2.57
2017-07-31T19:56:51.695Z,2.83
2017-07-31T19:59:21.109Z,2.77
2017-07-31T20:01:50.451Z,2.93
2017-07-31T20:04:19.755Z,2.57
2017-07-31T20:06:48.800Z,2.80
2017-07-31T20:09:18.168Z,2.87
2017-07-31T20:11:47.306Z,3.10
2017-07-31T20:14:16.714Z,2.90
2017-07-31T20:16:45.919Z,3.23
2017-07-31T20:19:15.074Z,2.80
2017-07-31T20:21:44.340Z,3.23
2017-07-31T20:24:14.760Z,3.00
2017-07-31T20:26:43.960Z,2.60
2017-07-31T20:29:13.464Z,2.97
2017-07-31T20:31:42.723Z,3.37
2017-07-31T20:34:12.381Z,2.83
2017-07-31T20:36:41.391Z,3.07
2017-07-31T20:39:10.701Z,2.53
2017-07-31T20:41:40.087Z,2.70
2017-07-31T20:44:09.592Z,2.90
2017-07-31T20:46:39.212Z,3.20
2017-07-31T20:49:08.711Z,2.90
2017-07-31T20:51:38.237Z,3.50
2017-07-31T20:54:07.782Z,3.03
2017-07-31T20:56:37.244Z,3.50
2017-07-31T20:59:07.548Z,2.70
2017-07-31T21:01:38.010Z,2.73
2017-07-31T21:04:07.474Z,2.90
2017-07-31T21:06:37.004Z,3.03
2017-07-31T21:09:06.497Z,2.53
2017-07-31T21:11:35.897Z,3.07
2017-07-31T21:14:05.264Z,2.83
2017-07-31T21:16:34.686Z,2.20
2017-07-31T21:19:03.934Z,3.03
2017-07-31T21:21:33.229Z,2.73
2017-07-31T21:24:02.647Z,3.10
2017-07-31T21:26:32.313Z,2.57
2017-07-31T21:29:01.805Z,2.73
2017-07-31T21:31:31.325Z,3.07
2017-07-31T21:34:00.781Z,2.40
2017-07-31T21:36:30.448Z,3.17
2017-07-31T21:39:00.029Z,3.13
2017-07-31T21:41:29.548Z,2.30
2017-07-31T21:43:59.085Z,2.70
2017-07-31T21:46:28.802Z,2.50
2017-07-31T21:48:58.327Z,2.37
2017-07-31T21:51:28.006Z,2.47
2017-07-31T21:53:57.360Z,2.57
2017-07-31T21:56:27.970Z,2.37
2017-07-31T21:58:58.013Z,2.40
2017-07-31T22:01:28.574Z,2.93
2017-07-31T22:03:57.969Z,2.80
2017-07-31T22:06:27.161Z,2.50
2017-07-31T22:08:56.645Z,2.20
2017-07-31T22:11:26.293Z,2.70
2017-07-31T22:13:56.073Z,2.33
2017-07-31T22:16:31.132Z,2.47
2017-07-31T22:19:00.822Z,2.77
2017-07-31T22:21:35.758Z,2.23
2017-07-31T22:24:05.244Z,2.73
2017-07-31T22:26:35.681Z,2.90
2017-07-31T22:29:05.385Z,2.63
2017-07-31T22:31:35.578Z,2.27
2017-07-31T22:34:05.230Z,2.10
2017-07-31T22:36:34.945Z,2.20
2017-07-31T22:39:04.561Z,2.13
2017-07-31T22:41:33.907Z,2.10
2017-07-31T22:44:03.380Z,2.47
2017-07-31T22:46:32.777Z,2.10
2017-07-31T22:49:01.669Z,2.40
2017-07-31T22:51:31.153Z,2.10
2017-07-31T22:54:00.550Z,2.90
2017-07-31T22:56:30.969Z,2.70
2017-07-31T22:59:00.446Z,2.80
2017-07-31T23:01:30.814Z,2.47
2017-07-31T23:04:00.706Z,3.00
2017-07-31T23:06:30.089Z,2.67
2017-07-31T23:09:00.160Z,2.20
2017-07-31T23:11:29.775Z,2.30
2017-07-31T23:13:59.360Z,2.23
2017-07-31T23:16:28.673Z,2.27
2017-07-31T23:18:58.335Z,2.50
2017-07-31T23:21:27.645Z,2.70
2017-07-31T23:23:57.304Z,2.50
2017-07-31T23:26:26.891Z,2.00
2017-07-31T23:28:56.493Z,2.30
2017-07-31T23:31:26.020Z,1.93
2017-07-31T23:33:55.369Z,2.63
2017-07-31T23:36:24.543Z,2.43
2017-07-31T23:38:53.885Z,2.30
2017-07-31T23:41:23.253Z,2.33
2017-07-31T23:43:52.726Z,2.20
2017-07-31T23:46:22.244Z,2.20
2017-07-31T23:48:51.906Z,2.27
2017-07-31T23:51:22.512Z,2.20
2017-07-31T23:53:51.850Z,2.20
2017-07-31T23:56:21.385Z,2.03
2017-07-31T23:58:50.849Z,2.30
